Time;durP1;ratioP1;P1;durP2;ratioP2;P2;SDS_P1;SDS_P2;PMS_P1;PMS_P2;Temp;Humidity;BMP_temperature;BMP_pressure;BME280_temperature;BME280_humidity;BME280_pressure;Samples;Min_cycle;Max_cycle;Signal;HPM_P1;HPM_P2
2021/06/26 00:01:59;;;;;;;5.93;5.53;;;;;;;16.09;81.71;96790.91;5072812;28;20048;-74
2021/06/26 00:04:25;;;;;;;5.95;5.47;;;;;;;16.08;81.72;96792.72;5073442;28;20036;-73
2021/06/26 00:06:51;;;;;;;5.57;5.20;;;;;;;16.06;81.78;96792.16;5073956;28;20037;-73
2021/06/26 00:09:18;;;;;;;5.93;5.43;;;;;;;16.06;81.85;96789.50;5073746;28;20032;-73
2021/06/26 00:11:44;;;;;;;6.00;5.50;;;;;;;16.06;81.84;96791.38;5073209;28;20032;-73
2021/06/26 00:14:10;;;;;;;6.32;5.05;;;;;;;16.05;81.73;96795.88;5073333;28;20412;-73
2021/06/26 00:16:36;;;;;;;4.55;4.25;;;;;;;16.01;81.77;96789.47;5073142;28;20370;-74
2021/06/26 00:19:03;;;;;;;5.15;4.78;;;;;;;16.00;81.89;96791.31;5073309;28;20037;-74
2021/06/26 00:21:29;;;;;;;4.88;4.57;;;;;;;15.97;81.86;96777.75;5073354;28;20032;-74
2021/06/26 00:23:55;;;;;;;4.95;4.65;;;;;;;15.97;82.08;96789.13;5072906;28;20049;-74
2021/06/26 00:26:21;;;;;;;5.45;5.13;;;;;;;15.97;81.90;96786.50;5073022;28;20489;-74
2021/06/26 00:28:48;;;;;;;5.78;5.22;;;;;;;15.96;82.21;96792.06;5073224;28;20393;-74
2021/06/26 00:31:14;;;;;;;5.30;5.00;;;;;;;15.93;82.08;96779.28;5073041;28;20045;-73
2021/06/26 00:33:40;;;;;;;5.45;5.07;;;;;;;15.94;82.25;96783.56;5072977;28;20366;-73
2021/06/26 00:36:07;;;;;;;5.05;4.75;;;;;;;15.91;82.37;96782.16;5073354;28;20044;-74
2021/06/26 00:38:33;;;;;;;5.53;4.95;;;;;;;15.90;82.65;96777.16;5071207;28;20048;-73
2021/06/26 00:40:59;;;;;;;6.18;5.68;;;;;;;15.90;82.56;96780.59;5073384;28;20412;-73
2021/06/26 00:43:25;;;;;;;7.53;6.00;;;;;;;15.92;82.55;96783.78;5072937;28;20041;-73
2021/06/26 00:45:52;;;;;;;6.72;6.22;;;;;;;15.88;82.64;96776.59;5073027;28;20405;-73
2021/06/26 00:48:18;;;;;;;6.15;5.63;;;;;;;15.84;82.76;96776.25;5072782;28;20055;-73
2021/06/26 00:50:44;;;;;;;5.65;5.20;;;;;;;15.86;82.86;96776.03;5073291;28;20041;-74
2021/06/26 00:53:10;;;;;;;5.72;5.32;;;;;;;15.85;82.86;96771.78;5073053;28;20048;-73
2021/06/26 00:55:37;;;;;;;5.35;5.05;;;;;;;15.84;82.92;96776.25;5072205;28;20048;-73
2021/06/26 00:58:04;;;;;;;6.00;5.45;;;;;;;15.82;82.95;96784.44;5073106;28;20044;-73
2021/06/26 01:00:32;;;;;;;6.30;5.90;;;;;;;15.79;83.07;96770.88;5072926;28;20048;-74
2021/06/26 01:03:00;;;;;;;6.63;6.10;;;;;;;15.75;83.21;96775.88;5072287;28;20067;-73
2021/06/26 01:05:26;;;;;;;6.38;5.97;;;;;;;15.73;83.32;96767.41;5072717;28;20040;-73
2021/06/26 01:07:53;;;;;;;5.95;5.55;;;;;;;15.73;83.42;96767.41;5072283;28;20047;-73
2021/06/26 01:10:20;;;;;;;5.38;5.05;;;;;;;15.75;83.60;96764.50;5074070;28;20028;-74
2021/06/26 01:12:47;;;;;;;5.88;5.47;;;;;;;15.76;83.64;96761.59;5076657;28;20040;-74
2021/06/26 01:15:15;;;;;;;5.85;5.45;;;;;;;15.77;83.65;96767.69;5076662;28;20056;-73
2021/06/26 01:17:41;;;;;;;6.22;5.82;;;;;;;15.75;83.62;96759.22;5076412;28;20028;-74
2021/06/26 01:20:10;;;;;;;6.07;5.68;;;;;;;15.74;83.55;96753.13;5077213;28;20460;-73
2021/06/26 01:23:12;;;;;;;6.03;5.57;;;;;;;15.72;83.78;96749.91;5076489;28;20041;-74
2021/06/26 01:25:33;;;;;;;5.70;5.30;;;;;;;15.75;83.76;96756.59;5075072;28;20067;-74
2021/06/26 01:28:00;;;;;;;6.55;5.82;;;;;;;15.73;83.79;96759.47;5075803;28;20076;-73
2021/06/26 01:30:32;;;;;;;6.20;5.68;;;;;;;15.72;83.72;96757.84;5076363;28;20052;-74
2021/06/26 01:32:59;;;;;;;6.22;5.82;;;;;;;15.69;83.55;96766.25;5076581;28;20036;-73
2021/06/26 01:35:26;;;;;;;6.20;5.80;;;;;;;15.67;83.62;96759.59;5076245;28;20033;-74
2021/06/26 01:37:53;;;;;;;6.35;5.93;;;;;;;15.63;83.46;96762.72;5075935;28;20041;-74
2021/06/26 01:40:21;;;;;;;6.32;5.68;;;;;;;15.62;83.56;96755.03;5076333;28;20028;-73
2021/06/26 01:42:49;;;;;;;6.38;5.88;;;;;;;15.60;83.72;96755.28;5076132;28;20036;-73
2021/06/26 01:45:17;;;;;;;6.15;5.78;;;;;;;15.59;83.64;96753.66;5076140;28;20045;-73
2021/06/26 01:47:55;;;;;;;6.38;5.90;;;;;;;15.58;83.68;96746.78;5076106;28;20032;-73
2021/06/26 01:50:24;;;;;;;6.38;5.88;;;;;;;15.57;83.60;96749.66;5076001;28;20036;-74
2021/06/26 01:52:52;;;;;;;5.75;5.35;;;;;;;15.56;83.59;96748.06;5075673;28;20079;-73
2021/06/26 01:55:20;;;;;;;6.30;5.75;;;;;;;15.56;83.53;96745.41;5076171;28;20059;-73
2021/06/26 01:57:48;;;;;;;5.80;5.35;;;;;;;15.53;83.67;96743.25;5075828;28;20032;-73
2021/06/26 02:00:16;;;;;;;5.85;5.38;;;;;;;15.53;83.56;96744.06;5075823;28;20401;-74
2021/06/26 02:02:43;;;;;;;5.68;5.32;;;;;;;15.51;83.56;96745.34;5075862;28;20491;-74
2021/06/26 02:05:12;;;;;;;6.18;5.57;;;;;;;15.49;83.56;96742.16;5075709;28;20044;-74
2021/06/26 02:07:38;;;;;;;5.97;5.60;;;;;;;15.49;83.56;96747.44;5075538;28;20028;-74
2021/06/26 02:10:06;;;;;;;6.47;5.97;;;;;;;15.48;83.66;96746.63;5075959;28;20037;-73
2021/06/26 02:12:33;;;;;;;6.50;6.07;;;;;;;15.45;83.60;96736.53;5075302;28;20486;-73
2021/06/26 02:15:00;;;;;;;6.13;5.63;;;;;;;15.45;83.66;96738.38;5075410;28;20040;-74
2021/06/26 02:17:28;;;;;;;5.75;5.35;;;;;;;15.41;83.51;96730.13;5074351;28;20505;-74
2021/06/26 02:19:54;;;;;;;7.00;6.30;;;;;;;15.40;83.72;96739.13;5075866;28;20036;-74
2021/06/26 02:22:21;;;;;;;6.47;5.88;;;;;;;15.40;83.81;96739.13;5074174;28;20040;-74
2021/06/26 02:24:48;;;;;;;6.55;6.10;;;;;;;15.39;83.73;96737.50;5075526;28;20040;-74
2021/06/26 02:27:14;;;;;;;7.22;6.60;;;;;;;15.38;83.94;96728.78;5075150;28;20044;-73
2021/06/26 02:29:40;;;;;;;6.78;6.18;;;;;;;15.39;84.01;96733.03;5075275;28;20045;-73
2021/06/26 02:32:06;;;;;;;5.80;5.40;;;;;;;15.38;84.08;96731.41;5074969;28;20040;-73
2021/06/26 02:34:33;;;;;;;6.45;6.05;;;;;;;15.39;84.05;96732.22;5075332;28;20052;-74
2021/06/26 02:37:00;;;;;;;6.22;5.72;;;;;;;15.38;83.92;96727.97;5074712;28;20055;-73
2021/06/26 02:39:26;;;;;;;6.10;5.70;;;;;;;15.37;83.92;96721.91;5074923;28;20032;-73
2021/06/26 02:41:52;;;;;;;7.15;6.43;;;;;;;15.38;83.96;96735.91;5075229;28;20036;-75
2021/06/26 02:44:19;;;;;;;5.88;5.47;;;;;;;15.34;83.85;96730.28;5074901;28;20036;-74
2021/06/26 02:46:45;;;;;;;6.82;6.18;;;;;;;15.32;83.95;96737.66;5074764;28;20036;-74
2021/06/26 02:49:12;;;;;;;6.65;6.15;;;;;;;15.32;83.94;96742.16;5074287;28;20048;-73
2021/06/26 02:51:38;;;;;;;7.68;6.45;;;;;;;15.29;83.95;96734.72;5055287;28;20397;-74
2021/06/26 02:54:04;;;;;;;6.88;6.38;;;;;;;15.27;83.96;96734.97;5074726;28;20051;-75
2021/06/26 02:56:30;;;;;;;6.88;6.35;;;;;;;15.24;84.01;96727.50;5074231;28;20047;-74
2021/06/26 02:58:57;;;;;;;6.68;6.13;;;;;;;15.22;84.08;96730.41;5074531;28;20045;-74
2021/06/26 03:01:23;;;;;;;6.20;5.80;;;;;;;15.21;84.01;96733.28;5074410;28;20047;-73
2021/06/26 03:03:49;;;;;;;6.85;6.28;;;;;;;15.18;84.06;96734.56;5074526;28;20405;-73
2021/06/26 03:06:15;;;;;;;6.97;6.38;;;;;;;15.17;84.06;96729.50;5074198;28;20048;-73
2021/06/26 03:08:41;;;;;;;6.20;5.80;;;;;;;15.13;83.89;96734.47;5074515;28;20377;-74
2021/06/26 03:11:07;;;;;;;5.97;5.63;;;;;;;15.12;84.04;96739.97;5074373;28;20040;-74
2021/06/26 03:13:34;;;;;;;7.13;6.50;;;;;;;15.09;83.99;96730.69;5074171;28;20044;-74
2021/06/26 03:16:00;;;;;;;6.93;6.32;;;;;;;15.07;84.05;96729.34;5074817;28;20484;-74
2021/06/26 03:18:27;;;;;;;6.57;5.97;;;;;;;15.05;83.94;96729.56;5074810;28;20044;-74
2021/06/26 03:20:55;;;;;;;6.75;5.82;;;;;;;15.04;84.05;96730.63;5056477;28;20441;-74
2021/06/26 03:23:22;;;;;;;6.65;6.20;;;;;;;15.00;83.96;96722.38;5073654;28;20041;-74
2021/06/26 03:25:48;;;;;;;6.85;6.25;;;;;;;14.96;83.84;96720.44;5074219;28;20036;-74
2021/06/26 03:28:14;;;;;;;6.25;5.82;;;;;;;14.90;83.99;96724.84;5073906;28;20036;-74
2021/06/26 03:30:40;;;;;;;6.07;5.60;;;;;;;14.87;84.07;96725.31;5073909;28;20491;-74
2021/06/26 03:33:07;;;;;;;5.97;5.57;;;;;;;14.85;84.04;96724.75;5073239;28;20047;-73
2021/06/26 03:35:33;;;;;;;6.88;5.90;;;;;;;14.81;84.18;96721.78;5074414;28;20036;-73
2021/06/26 03:37:59;;;;;;;6.28;5.82;;;;;;;14.78;84.11;96724.91;5073803;28;20052;-74
2021/06/26 03:40:32;;;;;;;6.30;5.80;;;;;;;14.77;84.08;96733.06;5073871;28;20047;-73
2021/06/26 03:42:59;;;;;;;5.85;5.38;;;;;;;14.74;84.15;96736.16;5073497;28;20045;-74
2021/06/26 03:45:25;;;;;;;5.95;5.55;;;;;;;14.69;84.12;96728.16;5073853;28;20055;-74
2021/06/26 03:47:51;;;;;;;5.82;5.43;;;;;;;14.68;84.25;96721.28;5073347;28;20041;-74
2021/06/26 03:50:17;;;;;;;6.45;5.95;;;;;;;14.67;84.14;96730.25;5073787;28;20032;-74
2021/06/26 03:52:43;;;;;;;5.53;5.13;;;;;;;14.66;84.24;96721.53;5073496;28;20055;-74
2021/06/26 03:55:10;;;;;;;6.60;6.10;;;;;;;14.66;84.44;96725.97;5073772;28;20049;-74
2021/06/26 03:57:36;;;;;;;6.97;6.47;;;;;;;14.63;84.29;96724.63;5073551;28;20499;-73
2021/06/26 04:00:07;;;;;;;7.05;6.10;;;;;;;14.60;84.47;96731.19;5073483;28;20393;-74
2021/06/26 04:02:33;;;;;;;6.63;6.13;;;;;;;14.61;84.47;96738.09;5073064;28;20040;-74
2021/06/26 04:04:59;;;;;;;6.68;6.07;;;;;;;14.65;84.95;96735.75;5073395;28;20392;-74
2021/06/26 04:07:25;;;;;;;6.68;6.07;;;;;;;14.67;84.70;96738.94;5073455;28;20040;-73
2021/06/26 04:09:52;;;;;;;5.97;5.57;;;;;;;14.70;84.62;96745.59;5073038;28;20056;-74
2021/06/26 04:12:18;;;;;;;6.50;6.00;;;;;;;14.72;84.61;96749.63;5073200;28;20040;-74
2021/06/26 04:14:44;;;;;;;7.07;6.47;;;;;;;14.76;84.72;96745.47;5073133;28;20401;-74
2021/06/26 04:17:10;;;;;;;7.03;6.43;;;;;;;14.77;84.42;96749.69;5073846;28;20043;-73
2021/06/26 04:19:36;;;;;;;6.72;6.13;;;;;;;14.78;84.45;96755.78;5072009;28;20045;-74
2021/06/26 04:22:03;;;;;;;6.15;5.55;;;;;;;14.77;84.43;96749.69;5073231;28;20044;-73
2021/06/26 04:24:29;;;;;;;5.93;5.43;;;;;;;14.81;84.51;96748.19;5073227;28;20045;-74
2021/06/26 04:26:55;;;;;;;5.55;5.15;;;;;;;14.85;84.39;96747.72;5073151;28;20061;-73
2021/06/26 04:29:23;;;;;;;6.30;5.70;;;;;;;14.89;84.35;96747.00;5071336;28;20492;-73
2021/06/26 04:31:49;;;;;;;5.43;5.03;;;;;;;14.97;84.31;96745.81;5072928;28;20032;-74
2021/06/26 04:34:15;;;;;;;5.43;4.93;;;;;;;15.10;84.30;96747.34;5072968;28;20036;-74
2021/06/26 04:36:42;;;;;;;6.05;5.60;;;;;;;15.30;84.33;96747.66;5072847;28;20037;-73
2021/06/26 04:39:09;;;;;;;5.88;5.47;;;;;;;15.50;83.96;96743.75;5072574;28;20048;-74
2021/06/26 04:41:36;;;;;;;5.45;5.05;;;;;;;15.71;83.79;96743.00;5072776;28;20453;-74
2021/06/26 04:44:04;;;;;;;6.18;5.78;;;;;;;15.87;82.75;96735.31;5059642;28;20049;-74
2021/06/26 04:46:30;;;;;;;5.93;5.53;;;;;;;15.99;82.56;96734.16;5076188;28;20058;-74
2021/06/26 04:48:57;;;;;;;5.85;5.35;;;;;;;16.22;82.52;96740.25;5077194;28;20033;-74
2021/06/26 04:51:25;;;;;;;6.20;5.78;;;;;;;16.44;82.34;96727.81;5077258;28;20032;-74
2021/06/26 04:53:51;;;;;;;6.45;5.95;;;;;;;16.62;81.77;96736.47;5076382;28;20048;-74
2021/06/26 04:56:17;;;;;;;6.40;5.90;;;;;;;16.84;81.31;96728.50;5077081;28;20055;-73
2021/06/26 04:58:43;;;;;;;5.80;5.40;;;;;;;17.08;80.63;96734.28;5077340;28;20477;-74
2021/06/26 05:01:11;;;;;;;6.00;5.55;;;;;;;17.31;79.93;96751.69;5077064;28;20033;-74
2021/06/26 05:03:39;;;;;;;6.70;6.20;;;;;;;17.52;79.65;96733.28;5076793;28;20468;-74
2021/06/26 05:06:05;;;;;;;5.88;5.47;;;;;;;17.70;78.78;96740.03;5076746;28;20033;-74
2021/06/26 05:08:32;;;;;;;6.43;5.95;;;;;;;17.76;78.15;96739.78;5077318;28;20039;-74
2021/06/26 05:10:58;;;;;;;6.47;6.07;;;;;;;17.76;77.29;96731.84;5076643;28;20033;-74
2021/06/26 05:13:25;;;;;;;6.72;6.22;;;;;;;17.94;77.43;96729.84;5075189;28;20044;-74
2021/06/26 05:15:51;;;;;;;6.18;5.78;;;;;;;18.09;76.74;96735.22;5076668;28;20044;-74
2021/06/26 05:18:17;;;;;;;6.60;6.10;;;;;;;18.30;76.40;96727.34;5076430;28;20036;-74
2021/06/26 05:20:44;;;;;;;5.97;5.47;;;;;;;18.46;75.72;96729.81;5076523;28;20055;-74
2021/06/26 05:23:16;;;;;;;6.13;5.53;;;;;;;18.66;74.49;96725.59;5076351;28;20040;-74
2021/06/26 05:25:43;;;;;;;6.07;5.68;;;;;;;18.77;74.36;96729.06;5076843;28;20032;-74
2021/06/26 05:28:10;;;;;;;6.13;5.72;;;;;;;18.71;73.32;96722.13;5076387;28;20040;-73
2021/06/26 05:30:37;;;;;;;6.18;5.78;;;;;;;18.72;73.33;96724.53;5075844;28;20048;-74
2021/06/26 05:33:04;;;;;;;6.22;5.78;;;;;;;18.78;73.21;96733.31;5075267;28;20460;-74
2021/06/26 05:35:31;;;;;;;6.28;5.88;;;;;;;18.85;73.00;96728.56;5076137;28;20461;-74
2021/06/26 05:37:57;;;;;;;5.65;5.30;;;;;;;18.96;72.49;96737.34;5076261;28;20024;-74
2021/06/26 05:40:23;;;;;;;5.60;5.15;;;;;;;19.05;72.26;96738.44;5076442;28;20036;-74
2021/06/26 05:42:49;;;;;;;5.00;4.60;;;;;;;19.04;71.86;96729.66;5075224;28;20469;-74
2021/06/26 05:45:16;;;;;;;5.40;5.00;;;;;;;18.86;71.53;96733.63;5076199;28;20036;-74
2021/06/26 05:47:42;;;;;;;5.85;5.55;;;;;;;18.72;71.78;96745.78;5075139;28;20043;-74
2021/06/26 05:50:09;;;;;;;5.85;5.35;;;;;;;18.86;72.31;96738.94;5076053;28;20048;-74
2021/06/26 05:52:52;;;;;;;4.80;4.50;;;;;;;19.12;71.34;96738.19;5075917;28;20032;-74
2021/06/26 05:55:20;;;;;;;5.20;4.90;;;;;;;19.40;71.85;96742.97;5075741;28;20056;-74
2021/06/26 05:57:47;;;;;;;5.15;4.75;;;;;;;19.65;71.14;96751.97;5075588;28;20088;-74
2021/06/26 06:00:15;;;;;;;5.20;4.90;;;;;;;19.74;70.59;96745.09;5075791;28;20052;-74
2021/06/26 06:02:42;;;;;;;5.32;5.00;;;;;;;19.79;69.82;96742.41;5075895;28;20032;-75
2021/06/26 06:05:08;;;;;;;6.40;5.90;;;;;;;19.67;69.47;96747.19;5075114;28;20051;-74
2021/06/26 06:07:36;;;;;;;5.00;4.60;;;;;;;19.45;69.13;96752.81;5075751;28;20047;-73
2021/06/26 06:10:04;;;;;;;8.55;5.60;;;;;;;19.42;69.60;96751.47;5075813;28;20491;-73
2021/06/26 06:12:35;;;;;;;5.50;5.18;;;;;;;19.48;69.62;96753.06;5075850;28;20035;-73
2021/06/26 06:15:04;;;;;;;5.40;5.00;;;;;;;19.44;69.58;96752.00;5075226;28;20047;-73
2021/06/26 06:17:33;;;;;;;5.57;5.15;;;;;;;19.35;69.46;96750.94;5075614;28;20028;-73
2021/06/26 06:20:03;;;;;;;5.80;5.40;;;;;;;19.34;69.68;96751.19;5075383;28;20404;-75
2021/06/26 06:22:34;;;;;;;5.90;5.50;;;;;;;19.30;69.78;96742.97;5060941;28;20048;-74
2021/06/26 06:25:02;;;;;;;5.38;4.97;;;;;;;19.36;70.00;96752.56;5075238;28;20388;-74
2021/06/26 06:27:28;;;;;;;6.25;5.85;;;;;;;19.52;69.72;96744.56;5075385;28;20036;-74
2021/06/26 06:29:54;;;;;;;5.40;5.00;;;;;;;19.62;69.49;96744.53;5075313;28;20055;-74
2021/06/26 06:32:21;;;;;;;5.03;4.72;;;;;;;19.81;69.51;96740.28;5075053;28;20033;-74
2021/06/26 06:34:47;;;;;;;5.72;5.30;;;;;;;19.94;69.01;96741.56;5075068;28;20055;-74
2021/06/26 06:37:13;;;;;;;5.80;5.45;;;;;;;19.99;68.49;96744.22;5075338;28;20465;-73
2021/06/26 06:39:40;;;;;;;5.00;4.70;;;;;;;19.99;68.18;96738.09;5074979;28;20039;-73
2021/06/26 06:42:06;;;;;;;6.03;5.63;;;;;;;20.26;67.89;96738.53;5075111;28;20036;-74
2021/06/26 06:44:32;;;;;;;5.70;5.35;;;;;;;20.28;67.38;96739.06;5057162;28;20377;-74
2021/06/26 06:46:59;;;;;;;5.78;5.38;;;;;;;20.30;66.85;96740.66;5073601;28;20053;-74
2021/06/26 06:49:25;;;;;;;6.28;5.88;;;;;;;20.28;66.34;96754.22;5074736;28;20041;-74
2021/06/26 06:51:51;;;;;;;5.35;5.05;;;;;;;20.12;66.26;96750.06;5074773;28;20047;-74
2021/06/26 06:54:17;;;;;;;6.05;5.55;;;;;;;20.31;66.83;96745.72;5074517;28;20393;-74
2021/06/26 06:56:43;;;;;;;5.95;5.55;;;;;;;20.73;66.08;96751.69;5075194;28;20041;-74
2021/06/26 06:59:09;;;;;;;5.53;5.22;;;;;;;20.98;65.54;96758.72;5074498;28;20040;-74
2021/06/26 07:01:36;;;;;;;6.50;6.10;;;;;;;20.73;64.38;96751.69;5073363;28;20032;-74
2021/06/26 07:04:02;;;;;;;6.07;5.63;;;;;;;20.47;64.95;96749.91;5075001;28;20032;-74
2021/06/26 07:06:29;;;;;;;5.47;5.18;;;;;;;20.54;65.54;96748.81;5074431;28;20032;-74
2021/06/26 07:08:55;;;;;;;5.57;5.18;;;;;;;20.66;65.28;96750.09;5073204;28;20063;-74
2021/06/26 07:11:22;;;;;;;5.47;5.18;;;;;;;20.73;65.13;96755.13;5074204;28;20055;-74
2021/06/26 07:13:48;;;;;;;6.78;6.28;;;;;;;20.70;64.83;96750.34;5073377;28;20033;-74
2021/06/26 07:16:14;;;;;;;5.72;5.32;;;;;;;20.51;64.86;96746.69;5074691;28;20056;-74
2021/06/26 07:18:41;;;;;;;5.97;5.53;;;;;;;20.59;65.04;96752.25;5073920;28;20041;-74
2021/06/26 07:21:07;;;;;;;5.57;5.18;;;;;;;20.62;65.26;96748.25;5073969;28;20040;-74
2021/06/26 07:23:33;;;;;;;5.70;5.30;;;;;;;20.63;65.20;96747.97;5073927;28;20044;-75
2021/06/26 07:25:59;;;;;;;5.13;4.82;;;;;;;20.60;65.15;96745.88;5074957;28;20044;-74
2021/06/26 07:28:26;;;;;;;5.15;4.85;;;;;;;20.46;64.63;96747.50;5074618;28;20062;-74
2021/06/26 07:30:52;;;;;;;4.88;4.57;;;;;;;20.33;64.97;96742.78;5073849;28;20036;-74
2021/06/26 07:33:18;;;;;;;4.55;4.32;;;;;;;20.36;65.32;96743.00;5074043;28;20036;-74
2021/06/26 07:35:48;;;;;;;5.28;4.93;;;;;;;20.43;65.27;96740.88;5072081;28;20425;-74
2021/06/26 07:38:14;;;;;;;5.18;4.88;;;;;;;20.62;65.42;96743.75;5073740;28;20028;-74
2021/06/26 07:40:40;;;;;;;4.90;4.60;;;;;;;20.98;64.99;96740.84;5073686;28;20035;-74
2021/06/26 07:43:06;;;;;;;4.30;4.10;;;;;;;21.44;64.35;96739.69;5073279;28;20060;-74
2021/06/26 07:45:33;;;;;;;4.32;4.13;;;;;;;21.92;63.53;96738.97;5074107;28;20040;-74
2021/06/26 07:47:59;;;;;;;4.90;4.60;;;;;;;21.93;62.22;96728.03;5073724;28;20050;-74
2021/06/26 07:50:25;;;;;;;4.93;4.63;;;;;;;21.90;61.84;96725.91;5073724;28;20032;-74
2021/06/26 07:52:52;;;;;;;4.65;4.25;;;;;;;22.02;61.90;96726.31;5073448;28;20040;-74
2021/06/26 07:55:18;;;;;;;4.70;4.43;;;;;;;21.93;61.20;96722.69;5073660;28;20059;-74
2021/06/26 07:57:44;;;;;;;4.47;4.18;;;;;;;21.59;61.08;96726.25;5073642;28;20045;-74
2021/06/26 08:00:11;;;;;;;4.28;4.05;;;;;;;21.32;61.53;96726.72;5071569;28;20053;-74
2021/06/26 08:02:37;;;;;;;4.63;4.25;;;;;;;21.05;61.75;96727.19;5073254;28;20477;-74
2021/06/26 08:05:04;;;;;;;4.72;4.43;;;;;;;20.94;62.28;96723.81;5073413;28;20044;-74
2021/06/26 08:07:30;;;;;;;4.60;4.30;;;;;;;20.86;62.15;96717.19;5058211;28;20033;-74
2021/06/26 08:09:56;;;;;;;4.50;4.25;;;;;;;21.10;62.23;96719.16;5072449;28;20049;-74
2021/06/26 08:12:22;;;;;;;4.82;4.53;;;;;;;21.12;61.92;96724.22;5073409;28;20032;-74
2021/06/26 08:14:49;;;;;;;4.10;3.90;;;;;;;21.07;61.87;96723.16;5072089;28;20035;-74
2021/06/26 08:17:15;;;;;;;4.28;4.00;;;;;;;21.01;61.96;96715.50;5072776;28;20052;-75
2021/06/26 08:19:42;;;;;;;4.50;4.20;;;;;;;21.00;62.11;96727.25;5073208;28;20032;-74
2021/06/26 08:22:09;;;;;;;4.13;3.92;;;;;;;21.00;62.25;96725.38;5073084;28;20413;-74
2021/06/26 08:24:35;;;;;;;4.43;4.10;;;;;;;21.00;61.89;96712.03;5073364;28;20041;-74
2021/06/26 08:27:02;;;;;;;3.40;3.20;;;;;;;21.14;62.11;96712.19;5073271;28;20040;-74
2021/06/26 08:29:29;;;;;;;3.35;3.15;;;;;;;21.40;61.87;96720.00;5059608;28;20032;-74
2021/06/26 08:31:55;;;;;;;3.65;3.45;;;;;;;21.55;61.58;96711.88;5073110;28;20041;-74
2021/06/26 08:34:21;;;;;;;3.42;3.22;;;;;;;21.64;61.16;96709.38;5072912;28;20036;-74
2021/06/26 08:36:50;;;;;;;3.50;3.30;;;;;;;21.63;60.74;96708.59;5073123;28;20044;-75
2021/06/26 08:39:19;;;;;;;2.70;2.60;;;;;;;21.41;59.69;96700.22;5057823;28;20029;-74
2021/06/26 08:41:50;;;;;;;3.13;2.92;;;;;;;21.36;57.66;96692.28;5073415;28;20032;-74
2021/06/26 08:44:18;;;;;;;3.00;2.90;;;;;;;21.44;59.09;96703.16;5072925;28;20473;-74
2021/06/26 08:46:49;;;;;;;3.20;2.90;;;;;;;21.75;58.28;96694.03;5071709;28;20037;-74
2021/06/26 08:49:17;;;;;;;2.90;2.80;;;;;;;21.87;57.59;96687.22;5073025;28;20400;-74
2021/06/26 08:51:43;;;;;;;3.28;3.08;;;;;;;21.93;57.27;96682.63;5073170;28;20036;-74
2021/06/26 08:54:12;;;;;;;3.72;3.53;;;;;;;21.97;56.79;96685.53;5073518;28;20033;-74
2021/06/26 08:56:41;;;;;;;3.70;3.50;;;;;;;21.75;56.59;96680.69;5069190;28;20056;-74
2021/06/26 08:59:09;;;;;;;3.80;3.60;;;;;;;21.65;57.06;96674.41;5071983;28;20055;-74
2021/06/26 09:01:37;;;;;;;3.40;3.20;;;;;;;21.69;57.39;96677.28;5072685;28;20045;-74
2021/06/26 09:04:30;;;;;;;3.63;3.35;;;;;;;21.58;57.10;96681.16;5072421;28;20400;-74
2021/06/26 09:06:59;;;;;;;3.33;3.15;;;;;;;21.33;57.06;96682.94;5059149;28;20048;-74
2021/06/26 09:09:33;;;;;;;3.30;3.10;;;;;;;21.24;57.73;96684.63;5072776;28;20384;-74
2021/06/26 09:12:06;;;;;;;3.47;3.28;;;;;;;21.19;57.55;96677.47;5072514;28;20036;-74
2021/06/26 09:14:34;;;;;;;3.08;2.97;;;;;;;21.14;57.97;96682.84;5073048;28;20040;-74
2021/06/26 09:17:00;;;;;;;2.92;2.80;;;;;;;21.15;57.91;96687.13;5072202;28;20496;-74
2021/06/26 09:19:28;;;;;;;3.30;3.20;;;;;;;21.14;57.92;96677.50;5071430;28;20047;-74
2021/06/26 09:22:07;;;;;;;3.58;3.38;;;;;;;21.08;57.50;96671.44;5072599;28;20044;-74
2021/06/26 09:24:43;;;;;;;3.25;3.15;;;;;;;21.08;56.88;96667.97;5072609;28;20052;-74
2021/06/26 09:27:17;;;;;;;3.80;3.50;;;;;;;21.19;56.48;96663.34;5072411;28;20480;-74
2021/06/26 09:29:55;;;;;;;4.07;3.75;;;;;;;21.29;58.10;96666.72;5072953;28;20036;-74
2021/06/26 09:32:31;;;;;;;3.20;3.10;;;;;;;21.38;57.60;96658.13;5075546;28;20039;-74
2021/06/26 09:34:58;;;;;;;2.88;2.78;;;;;;;21.56;57.49;96662.75;5075632;28;20469;-74
2021/06/26 09:37:28;;;;;;;3.13;2.92;;;;;;;21.72;57.32;96655.38;5075596;28;20043;-74
2021/06/26 09:40:00;;;;;;;3.28;3.08;;;;;;;21.91;57.40;96660.75;5076350;28;20036;-74
2021/06/26 09:42:35;;;;;;;3.03;2.92;;;;;;;21.98;56.97;96658.53;5076439;28;20393;-74
2021/06/26 09:45:05;;;;;;;3.50;3.30;;;;;;;21.87;56.75;96652.53;5076057;28;20396;-75
2021/06/26 09:47:38;;;;;;;2.97;2.88;;;;;;;21.88;57.15;96655.97;5075628;28;20047;-74
2021/06/26 09:50:15;;;;;;;2.47;2.38;;;;;;;22.06;57.45;96659.78;5075833;28;20424;-74
2021/06/26 09:52:53;;;;;;;3.40;3.30;;;;;;;22.03;56.47;96644.34;5076266;28;20374;-74
2021/06/26 09:55:39;;;;;;;3.35;3.15;;;;;;;21.92;56.91;96656.22;5075763;28;20465;-74
2021/06/26 09:58:17;;;;;;;3.15;2.95;;;;;;;21.80;57.17;96651.28;5073602;28;20059;-73
2021/06/26 10:00:45;;;;;;;3.10;2.90;;;;;;;21.76;57.38;96652.94;5075657;28;20044;-74
2021/06/26 10:03:17;;;;;;;2.95;2.85;;;;;;;21.78;56.93;96658.78;5075957;28;20035;-75
2021/06/26 10:05:46;;;;;;;2.65;2.40;;;;;;;21.79;57.32;96652.34;5075953;28;20040;-74
2021/06/26 10:08:14;;;;;;;3.15;2.85;;;;;;;21.87;57.31;96657.06;5074606;28;20461;-74
2021/06/26 10:10:40;;;;;;;3.13;3.03;;;;;;;22.03;56.91;96647.00;5075011;28;20044;-74
2021/06/26 10:13:11;;;;;;;3.13;2.75;;;;;;;22.23;56.66;96643.28;5075954;28;20485;-75
2021/06/26 10:15:38;;;;;;;3.00;2.80;;;;;;;22.23;56.12;96653.97;5075451;28;20051;-74
2021/06/26 10:18:05;;;;;;;3.20;3.05;;;;;;;22.19;55.82;96644.91;5075449;28;20037;-74
2021/06/26 10:20:36;;;;;;;3.35;3.15;;;;;;;22.22;55.97;96644.38;5075466;28;20033;-74
2021/06/26 10:23:04;;;;;;;2.92;2.70;;;;;;;22.29;55.73;96634.13;5075194;28;20056;-74
2021/06/26 10:25:44;;;;;;;2.80;2.70;;;;;;;22.33;54.23;96629.00;5075710;28;20408;-74
2021/06/26 10:28:19;;;;;;;2.75;2.65;;;;;;;22.15;54.33;96620.66;5075849;28;20489;-74
2021/06/26 10:31:06;;;;;;;2.42;2.22;;;;;;;22.23;53.15;96613.91;5074756;28;20040;-74
2021/06/26 10:33:33;;;;;;;2.38;2.28;;;;;;;22.25;53.94;96617.88;5074536;28;20059;-74
2021/06/26 10:36:00;;;;;;;2.38;2.28;;;;;;;22.53;54.02;96609.19;5075415;28;20035;-74
2021/06/26 10:38:39;;;;;;;2.40;2.30;;;;;;;22.89;52.52;96593.41;5074960;28;20461;-75
2021/06/26 10:41:20;;;;;;;2.40;2.30;;;;;;;23.04;52.74;96590.47;5064614;28;20033;-75
2021/06/26 10:44:07;;;;;;;2.45;2.35;;;;;;;23.31;52.77;96596.97;5061839;28;20029;-74
2021/06/26 10:46:33;;;;;;;2.45;2.35;;;;;;;23.38;52.31;96588.53;5075168;28;20044;-74
2021/06/26 10:49:03;;;;;;;2.47;2.38;;;;;;;23.34;52.60;96588.34;5075385;28;20045;-74
2021/06/26 10:51:40;;;;;;;2.55;2.35;;;;;;;23.25;53.61;96595.47;5074913;28;20044;-74
2021/06/26 10:54:19;;;;;;;3.63;2.38;;;;;;;23.16;53.58;96603.41;5074789;28;20388;-74
2021/06/26 10:56:49;;;;;;;2.30;2.20;;;;;;;22.85;50.56;96585.16;5074707;28;20048;-74
2021/06/26 10:59:18;;;;;;;2.30;2.20;;;;;;;22.57;52.80;96599.50;5074723;28;20049;-74
2021/06/26 11:02:03;;;;;;;2.38;2.28;;;;;;;22.36;51.38;96586.47;5074131;28;20052;-74
2021/06/26 11:04:31;;;;;;;2.45;2.35;;;;;;;22.27;52.99;96606.91;5074430;28;20040;-74
2021/06/26 11:07:09;;;;;;;2.50;2.30;;;;;;;22.31;53.69;96621.28;5075069;28;20044;-74
2021/06/26 11:09:40;;;;;;;1.92;1.83;;;;;;;22.42;53.39;96608.56;5074508;28;20047;-74
2021/06/26 11:12:18;;;;;;;2.35;2.25;;;;;;;22.55;50.06;96581.09;5074380;28;20052;-74
2021/06/26 11:14:56;;;;;;;2.05;1.90;;;;;;;22.63;51.79;96587.66;5074516;28;20052;-75
2021/06/26 11:17:34;;;;;;;2.10;1.92;;;;;;;22.81;51.04;96584.16;5074712;28;20039;-74
2021/06/26 11:20:01;;;;;;;1.90;1.80;;;;;;;23.12;51.93;96574.81;5074637;28;20037;-74
2021/06/26 11:22:28;;;;;;;2.10;2.00;;;;;;;23.38;51.54;96580.53;5073888;28;20059;-74
2021/06/26 11:24:54;;;;;;;2.40;2.30;;;;;;;23.77;51.19;96580.03;5073926;28;20044;-74
2021/06/26 11:27:21;;;;;;;2.20;2.10;;;;;;;24.19;51.07;96574.56;5074025;28;20055;-74
2021/06/26 11:29:49;;;;;;;2.30;2.20;;;;;;;24.41;50.89;96569.25;5074017;28;20036;-74
2021/06/26 11:32:24;;;;;;;2.50;2.40;;;;;;;24.36;49.32;96550.63;5074379;28;20049;-74
2021/06/26 11:34:56;;;;;;;2.10;2.00;;;;;;;24.21;50.42;96556.31;5074267;28;20047;-74
2021/06/26 11:37:23;;;;;;;2.10;2.00;;;;;;;24.11;50.76;96563.50;5073211;28;20041;-74
2021/06/26 11:39:50;;;;;;;2.17;2.08;;;;;;;24.06;50.62;96557.44;5073526;28;20043;-74